createdAt,value
2019-05-06T00:00:31.050Z,98885.75
2019-05-06T00:02:59.721Z,98883.27
2019-05-06T00:05:28.658Z,98889.22
2019-05-06T00:07:57.408Z,98890.03
2019-05-06T00:10:36.480Z,98887.02
2019-05-06T00:13:05.324Z,98890.30
2019-05-06T00:15:34.592Z,98890.85
2019-05-06T00:18:04.533Z,98888.11
2019-05-06T00:20:34.811Z,98889.20
2019-05-06T00:23:09.556Z,98882.41
2019-05-06T00:25:45.540Z,98878.33
2019-05-06T00:28:24.554Z,98881.03
2019-05-06T00:31:02.831Z,98882.91
2019-05-06T00:33:25.387Z,98882.66
2019-05-06T00:35:54.157Z,98885.36
2019-05-06T00:38:24.637Z,98883.73
2019-05-06T00:40:56.481Z,98880.17
2019-05-06T00:43:25.218Z,98877.20
2019-05-06T00:45:53.884Z,98876.95
2019-05-06T00:48:24.423Z,98876.94
2019-05-06T00:50:53.686Z,98875.55
2019-05-06T00:53:24.841Z,98871.45
2019-05-06T00:55:53.917Z,98868.44
2019-05-06T00:58:23.802Z,98876.03
2019-05-06T01:00:53.766Z,98869.55
2019-05-06T01:03:23.913Z,98869.56
2019-05-06T01:05:54.219Z,98867.68
2019-05-06T01:08:23.933Z,98876.31
2019-05-06T01:10:54.497Z,98866.25
2019-05-06T01:13:37.767Z,98870.06
2019-05-06T01:16:07.167Z,98877.33
2019-05-06T01:18:36.158Z,98881.38
2019-05-06T01:21:11.164Z,98876.02
2019-05-06T01:23:44.874Z,98869.12
2019-05-06T01:26:17.061Z,98875.36
2019-05-06T01:28:46.400Z,98877.31
2019-05-06T01:31:15.867Z,98872.19
2019-05-06T01:33:45.391Z,98874.27
2019-05-06T01:36:14.384Z,98874.05
2019-05-06T01:38:56.521Z,98877.81
2019-05-06T01:41:50.006Z,98877.03
2019-05-06T01:44:19.639Z,98874.02
2019-05-06T01:46:48.632Z,98881.81
2019-05-06T01:49:17.377Z,98876.35
2019-05-06T01:51:46.053Z,98879.58
2019-05-06T01:54:14.708Z,98886.33
2019-05-06T01:56:44.509Z,98875.97
2019-05-06T01:59:14.082Z,98878.77
2019-05-06T02:01:56.470Z,98886.72
2019-05-06T02:04:13.972Z,98886.19
2019-05-06T02:06:43.782Z,98888.89
2019-05-06T02:09:17.267Z,98889.17
2019-05-06T02:11:48.132Z,98895.45
2019-05-06T02:14:17.285Z,98888.63
2019-05-06T02:16:46.274Z,98893.23
2019-05-06T02:19:15.021Z,98889.44
2019-05-06T02:21:58.121Z,98885.34
2019-05-06T02:24:33.760Z,98893.76
2019-05-06T02:27:04.499Z,98890.13
2019-05-06T02:29:36.528Z,98894.93
2019-05-06T02:32:25.220Z,98891.41
2019-05-06T02:34:54.623Z,98884.34
2019-05-06T02:37:35.315Z,98887.50
2019-05-06T02:40:05.446Z,98886.16
2019-05-06T02:42:34.879Z,98889.63
2019-05-06T02:45:04.202Z,98884.28
2019-05-06T02:47:48.369Z,98882.11
2019-05-06T02:50:20.191Z,98885.56
2019-05-06T02:52:49.176Z,98880.69
2019-05-06T02:55:17.940Z,98888.02
2019-05-06T02:57:46.687Z,98882.64
2019-05-06T03:00:17.223Z,98884.80
2019-05-06T03:02:48.100Z,98879.74
2019-05-06T03:05:16.704Z,98883.23
2019-05-06T03:07:45.703Z,98884.19
2019-05-06T03:10:16.292Z,98881.80
2019-05-06T03:12:44.955Z,98881.22
2019-05-06T03:15:16.889Z,98881.74
2019-05-06T03:17:44.948Z,98880.77
2019-05-06T03:20:24.230Z,98875.08
2019-05-06T03:22:59.561Z,98881.97
2019-05-06T03:25:33.176Z,98882.55
2019-05-06T03:28:04.222Z,98878.27
2019-05-06T03:30:36.292Z,98875.97
2019-05-06T03:35:48.379Z,98876.27
2019-05-06T03:38:04.121Z,98875.14
2019-05-06T03:40:36.249Z,98875.97
2019-05-06T03:43:03.847Z,98875.72
2019-05-06T03:45:42.939Z,98874.66
2019-05-06T03:48:19.427Z,98869.75
2019-05-06T03:50:48.344Z,98876.27
2019-05-06T03:53:17.687Z,98870.94
2019-05-06T03:55:47.533Z,98871.70
2019-05-06T03:58:26.304Z,98874.11
2019-05-06T04:00:53.136Z,98870.61
2019-05-06T04:03:33.781Z,98873.84
2019-05-06T04:05:55.961Z,98877.94
2019-05-06T04:08:24.527Z,98873.36
2019-05-06T04:10:54.144Z,98873.92
2019-05-06T04:13:23.286Z,98873.94
2019-05-06T04:16:10.076Z,98870.10
2019-05-06T04:18:43.792Z,98865.23
2019-05-06T04:21:24.314Z,98872.03
2019-05-06T04:23:58.303Z,98877.73
2019-05-06T04:26:46.443Z,98873.39
2019-05-06T04:29:15.838Z,98873.96
2019-05-06T04:31:44.502Z,98873.67
2019-05-06T04:34:19.103Z,98870.17
2019-05-06T04:36:44.346Z,98874.52
2019-05-06T04:39:13.796Z,98875.60
2019-05-06T04:41:43.312Z,98876.11
2019-05-06T04:44:13.954Z,98878.83
2019-05-06T04:46:44.316Z,98880.73
2019-05-06T04:49:14.962Z,98881.28
2019-05-06T04:51:44.450Z,98891.08
2019-05-06T04:54:13.732Z,98886.98
2019-05-06T04:56:43.760Z,98893.76
2019-05-06T04:59:13.854Z,98900.82
2019-05-06T05:01:45.530Z,98892.64
2019-05-06T05:04:26.900Z,98901.86
2019-05-06T05:06:45.630Z,98904.63
2019-05-06T05:09:17.177Z,98899.17
2019-05-06T05:11:58.117Z,98900.30
2019-05-06T05:14:45.530Z,98902.17
2019-05-06T05:17:24.753Z,98898.11
2019-05-06T05:19:53.583Z,98896.50
2019-05-06T05:22:22.319Z,98890.84
2019-05-06T05:24:52.152Z,98898.48
2019-05-06T05:27:21.929Z,98898.78
2019-05-06T05:29:52.164Z,98900.98
2019-05-06T05:32:22.450Z,98900.75
2019-05-06T05:34:52.296Z,98904.53
2019-05-06T05:37:22.830Z,98908.08
2019-05-06T05:39:52.093Z,98903.45
2019-05-06T05:42:39.892Z,98917.26
2019-05-06T05:47:45.974Z,98907.23
2019-05-06T05:50:23.045Z,98909.98
2019-05-06T05:52:52.101Z,98908.41
2019-05-06T05:55:22.013Z,98913.00
2019-05-06T05:57:51.920Z,98911.89
2019-05-06T06:00:22.670Z,98914.61
2019-05-06T06:02:52.989Z,98922.73
2019-05-06T06:05:22.115Z,98915.94
2019-05-06T06:07:53.001Z,98919.22
2019-05-06T06:10:46.180Z,98922.00
2019-05-06T06:13:15.308Z,98914.42
2019-05-06T06:15:59.010Z,98913.91
2019-05-06T06:18:43.077Z,98915.23
2019-05-06T06:21:36.752Z,98911.72
2019-05-06T06:24:13.137Z,98905.77
2019-05-06T06:26:43.001Z,98902.25
2019-05-06T06:29:12.595Z,98906.05
2019-05-06T06:31:50.004Z,98907.70
2019-05-06T06:34:24.072Z,98909.89
2019-05-06T06:37:13.334Z,98913.94
2019-05-06T06:39:44.173Z,98923.98
2019-05-06T06:42:13.011Z,98913.66
2019-05-06T06:44:42.437Z,98917.47
2019-05-06T06:47:13.101Z,98916.39
2019-05-06T06:49:42.607Z,98912.32
2019-05-06T06:52:14.763Z,98906.38
2019-05-06T06:54:43.865Z,98902.31
2019-05-06T06:57:42.451Z,98906.95
2019-05-06T07:00:39.608Z,98897.17
2019-05-06T07:03:14.288Z,98897.45
2019-05-06T07:06:08.386Z,98903.42
2019-05-06T07:08:37.876Z,98897.98
2019-05-06T07:11:06.637Z,98902.06
2019-05-06T07:13:35.478Z,98902.87
2019-05-06T07:16:04.977Z,98907.47
2019-05-06T07:18:33.953Z,98903.64
2019-05-06T07:21:22.382Z,98904.72
2019-05-06T07:23:52.967Z,98897.91
2019-05-06T07:26:23.875Z,98903.34
2019-05-06T07:28:52.977Z,98782.30
2019-05-06T07:31:25.805Z,98906.31
2019-05-06T07:33:52.409Z,98897.64
2019-05-06T07:36:22.834Z,98902.80
2019-05-06T07:38:52.736Z,98901.95
2019-05-06T07:41:45.781Z,98905.98
2019-05-06T07:44:19.121Z,98901.04
2019-05-06T07:47:03.579Z,98909.24
2019-05-06T07:49:33.153Z,98906.17
2019-05-06T07:52:02.892Z,98906.33
2019-05-06T07:54:32.941Z,98901.94
2019-05-06T07:57:02.496Z,98904.41
2019-05-06T07:59:33.276Z,98909.05
2019-05-06T08:02:02.296Z,98910.16
2019-05-06T08:04:32.418Z,98906.35
2019-05-06T08:07:03.104Z,98905.67
2019-05-06T08:09:32.644Z,98913.77
2019-05-06T08:12:02.805Z,98906.17
2019-05-06T08:14:43.723Z,98906.15
2019-05-06T08:17:26.092Z,98895.02
2019-05-06T08:19:54.779Z,98894.11
2019-05-06T08:22:45.140Z,98895.84
2019-05-06T08:25:14.305Z,98900.48
2019-05-06T08:27:43.642Z,98893.89
2019-05-06T08:30:13.199Z,98891.95
2019-05-06T08:32:42.503Z,98898.48
2019-05-06T08:35:13.373Z,98891.26
2019-05-06T08:37:42.709Z,98891.47
2019-05-06T08:40:12.461Z,98888.12
2019-05-06T08:42:42.624Z,98885.01
2019-05-06T08:45:12.938Z,98885.54
2019-05-06T08:47:42.506Z,98893.36
2019-05-06T08:50:21.919Z,98892.27
2019-05-06T08:53:05.035Z,98885.48
2019-05-06T08:55:36.761Z,98891.49
2019-05-06T08:58:05.786Z,98886.84
2019-05-06T09:00:38.271Z,98885.41
2019-05-06T09:03:06.976Z,98883.70
2019-05-06T09:05:35.999Z,98890.59
2019-05-06T09:08:05.524Z,98884.18
2019-05-06T09:10:34.511Z,98880.81
2019-05-06T09:13:03.272Z,98885.22
2019-05-06T09:15:32.890Z,98891.62
2019-05-06T09:18:02.945Z,98890.63
2019-05-06T09:20:32.688Z,98886.41
2019-05-06T09:23:04.496Z,98883.77
2019-05-06T09:25:32.444Z,98889.69
2019-05-06T09:28:23.253Z,98888.33
2019-05-06T09:31:13.051Z,98887.86
2019-05-06T09:33:48.744Z,98887.91
2019-05-06T09:36:17.504Z,98890.86
2019-05-06T09:38:46.580Z,98886.06
2019-05-06T09:41:16.805Z,98879.11
2019-05-06T09:43:45.792Z,98887.48
2019-05-06T09:46:14.981Z,98883.91
2019-05-06T09:49:22.929Z,98882.02
2019-05-06T09:51:52.923Z,98872.48
2019-05-06T09:54:32.240Z,98875.83
2019-05-06T09:57:05.116Z,98882.52
2019-05-06T09:59:34.205Z,98881.09
2019-05-06T10:02:03.320Z,98878.83
2019-05-06T10:04:32.483Z,98877.98
2019-05-06T10:07:05.610Z,98876.30
2019-05-06T10:09:34.714Z,98869.75
2019-05-06T10:12:03.798Z,98869.75
2019-05-06T10:14:32.621Z,98865.16
2019-05-06T10:17:04.396Z,98848.86
2019-05-06T10:19:34.702Z,98859.39
2019-05-06T10:22:03.783Z,98862.44
2019-05-06T10:24:32.535Z,98862.92
2019-05-06T10:27:02.614Z,98866.70
2019-05-06T10:29:43.232Z,98858.96
2019-05-06T10:32:37.519Z,98859.05
2019-05-06T10:35:07.537Z,98853.61
2019-05-06T10:38:33.354Z,98853.94
2019-05-06T10:41:07.706Z,98859.05
2019-05-06T10:43:57.696Z,98861.55
2019-05-06T10:46:26.380Z,98865.47
2019-05-06T10:48:55.069Z,98866.89
2019-05-06T10:51:29.456Z,98861.23
2019-05-06T10:53:58.183Z,98848.48
2019-05-06T10:56:53.847Z,98846.29
2019-05-06T10:59:16.910Z,98843.83
2019-05-06T11:01:47.033Z,98841.27
2019-05-06T11:04:16.024Z,98844.19
2019-05-06T11:06:45.224Z,98845.55
2019-05-06T11:09:14.011Z,98839.53
2019-05-06T11:11:43.309Z,98836.84
2019-05-06T11:14:12.932Z,98842.72
2019-05-06T11:16:41.734Z,98836.19
2019-05-06T11:19:13.121Z,98843.76
2019-05-06T11:21:42.166Z,98837.55
2019-05-06T11:24:12.266Z,98834.00
2019-05-06T11:26:43.040Z,98843.00
2019-05-06T11:29:17.789Z,98843.80
2019-05-06T11:31:57.236Z,98833.45
2019-05-06T11:34:43.263Z,98830.80
2019-05-06T11:37:43.830Z,98834.31
2019-05-06T11:40:00.806Z,98836.22
2019-05-06T11:42:33.520Z,98828.50
2019-05-06T11:45:03.005Z,98835.71
2019-05-06T11:47:32.490Z,98824.64
2019-05-06T11:50:02.458Z,98828.38
2019-05-06T11:52:34.469Z,98821.45
2019-05-06T11:55:02.636Z,98830.55
2019-05-06T11:57:32.634Z,98824.72
2019-05-06T12:00:03.111Z,98813.55
2019-05-06T12:02:33.015Z,98817.43
2019-05-06T12:05:02.444Z,98801.44
2019-05-06T12:07:33.265Z,98809.52
2019-05-06T12:10:02.504Z,98803.92
2019-05-06T12:12:31.391Z,98803.92
2019-05-06T12:15:00.427Z,98815.20
2019-05-06T12:17:29.350Z,98818.73
2019-05-06T12:19:58.040Z,98815.28
2019-05-06T12:22:35.619Z,98820.27
2019-05-06T12:25:11.005Z,98818.03
2019-05-06T12:27:46.157Z,98814.84
2019-05-06T12:30:39.406Z,98815.52
2019-05-06T12:33:36.279Z,98815.52
2019-05-06T12:36:18.762Z,98817.03
2019-05-06T12:39:15.818Z,98814.34
2019-05-06T12:42:14.825Z,98812.56
2019-05-06T12:47:46.841Z,98807.06
2019-05-06T12:50:15.922Z,98798.38
2019-05-06T12:52:47.051Z,98800.58
2019-05-06T12:55:21.520Z,98808.18
2019-05-06T12:57:46.564Z,98799.75
2019-05-06T13:00:16.141Z,98804.16
2019-05-06T13:02:45.064Z,98801.38
2019-05-06T13:05:14.338Z,98802.08
2019-05-06T13:07:47.543Z,98804.87
2019-05-06T13:10:22.758Z,98804.87
2019-05-06T13:12:58.989Z,98805.42
2019-05-06T13:15:28.244Z,98814.88
2019-05-06T13:17:56.912Z,98812.06
2019-05-06T13:20:27.394Z,98814.29
2019-05-06T13:23:20.941Z,98823.66
2019-05-06T13:25:46.200Z,98825.77
2019-05-06T13:28:16.620Z,98758.60
2019-05-06T13:30:45.293Z,98821.09
2019-05-06T13:33:22.702Z,98821.67
2019-05-06T13:35:52.687Z,98813.72
2019-05-06T13:38:22.497Z,98813.72
2019-05-06T13:40:54.827Z,98810.16
2019-05-06T13:43:38.743Z,98813.20
2019-05-06T13:46:15.232Z,98805.13
2019-05-06T13:48:49.920Z,98800.28
2019-05-06T13:51:23.027Z,98801.80
2019-05-06T13:53:52.882Z,98798.48
2019-05-06T13:56:22.194Z,98796.79
2019-05-06T13:58:52.586Z,98799.67
2019-05-06T14:01:23.558Z,98795.25
2019-05-06T14:03:52.657Z,98789.69
2019-05-06T14:06:21.363Z,98789.25
2019-05-06T14:08:50.314Z,98792.33
2019-05-06T14:11:19.527Z,98779.30
2019-05-06T14:13:48.470Z,98784.55
2019-05-06T14:16:17.409Z,98779.17
2019-05-06T14:18:46.670Z,98779.73
2019-05-06T14:21:15.366Z,98771.80
2019-05-06T14:23:44.816Z,98774.27
2019-05-06T14:26:23.007Z,98768.84
2019-05-06T14:28:55.582Z,98772.19
2019-05-06T14:31:26.956Z,98762.02
2019-05-06T14:33:55.647Z,98761.57
2019-05-06T14:36:27.552Z,98764.57
2019-05-06T14:38:55.352Z,98763.55
2019-05-06T14:41:27.374Z,98761.08
2019-05-06T14:43:56.205Z,98766.59
2019-05-06T14:46:25.235Z,98761.73
2019-05-06T14:48:54.194Z,98764.03
2019-05-06T14:51:22.881Z,98761.40
2019-05-06T14:53:53.021Z,98765.84
2019-05-06T14:56:28.399Z,98764.79
2019-05-06T14:59:07.336Z,98773.75
2019-05-06T15:01:38.420Z,98770.94
2019-05-06T15:04:07.326Z,98771.91
2019-05-06T15:06:36.324Z,98774.09
2019-05-06T15:09:08.044Z,98772.73
2019-05-06T15:11:38.497Z,98779.06
2019-05-06T15:14:07.419Z,98776.66
2019-05-06T15:16:36.425Z,98774.84
2019-05-06T15:19:05.656Z,98773.79
2019-05-06T15:21:38.660Z,98779.76
2019-05-06T15:24:05.327Z,98775.39
2019-05-06T15:26:34.005Z,98774.80
2019-05-06T15:29:03.430Z,98777.43
2019-05-06T15:31:39.253Z,98770.77
2019-05-06T15:34:13.057Z,98774.50
2019-05-06T15:36:48.628Z,98776.13
2019-05-06T15:39:17.412Z,98773.50
2019-05-06T15:41:46.096Z,98777.09
2019-05-06T15:44:15.064Z,98767.31
2019-05-06T15:46:43.728Z,98767.45
2019-05-06T15:49:12.430Z,98775.48
2019-05-06T15:51:42.770Z,98772.66
2019-05-06T15:54:11.812Z,98767.58
2019-05-06T15:56:42.241Z,98776.23
2019-05-06T15:59:12.145Z,98765.39
2019-05-06T16:01:43.108Z,98775.30
2019-05-06T16:04:12.253Z,98768.65
2019-05-06T16:06:44.491Z,98767.91
2019-05-06T16:09:14.228Z,98764.36
2019-05-06T16:11:44.670Z,98765.19
2019-05-06T16:14:12.891Z,98775.94
2019-05-06T16:16:42.947Z,98771.66
2019-05-06T16:19:12.975Z,98769.20
2019-05-06T16:21:44.994Z,98764.83
2019-05-06T16:24:19.715Z,98770.70
2019-05-06T16:26:48.478Z,98765.91
2019-05-06T16:29:18.877Z,98767.28
2019-05-06T16:31:47.567Z,98761.08
2019-05-06T16:34:16.263Z,98765.33
2019-05-06T16:36:44.958Z,98767.15
2019-05-06T16:39:14.160Z,98770.56
2019-05-06T16:41:44.736Z,98759.63
2019-05-06T16:44:13.885Z,98756.90
2019-05-06T16:46:42.823Z,98757.41
2019-05-06T16:49:14.017Z,98758.63
2019-05-06T16:51:43.922Z,98756.48
2019-05-06T16:54:12.447Z,98756.98
2019-05-06T16:56:52.778Z,98759.22
2019-05-06T16:59:23.641Z,98756.72
2019-05-06T17:01:52.367Z,98760.67
2019-05-06T17:04:33.479Z,98763.00
2019-05-06T17:07:03.057Z,98755.16
2019-05-06T17:09:33.231Z,98762.62
2019-05-06T17:12:02.810Z,98764.94
2019-05-06T17:14:32.992Z,98759.20
2019-05-06T17:17:03.248Z,98766.03
2019-05-06T17:19:32.811Z,98762.02
2019-05-06T17:22:03.164Z,98767.56
2019-05-06T17:24:33.111Z,98771.39
2019-05-06T17:27:02.725Z,98773.06
2019-05-06T17:29:59.822Z,98786.22
2019-05-06T17:32:34.712Z,98793.50
2019-05-06T17:35:03.725Z,98796.22
2019-05-06T17:37:49.978Z,98808.55
2019-05-06T17:40:19.548Z,98808.32
2019-05-06T17:42:48.283Z,98806.22
2019-05-06T17:45:39.348Z,98806.76
2019-05-06T17:48:14.278Z,98808.98
2019-05-06T17:50:44.856Z,98811.23
2019-05-06T17:53:13.614Z,98812.05
2019-05-06T17:55:43.276Z,98824.35
2019-05-06T17:58:12.981Z,98832.30
2019-05-06T18:00:42.945Z,98834.54
2019-05-06T18:03:11.826Z,98843.69
2019-05-06T18:05:42.179Z,98839.67
2019-05-06T18:08:12.880Z,98830.16
2019-05-06T18:10:42.692Z,98815.80
2019-05-06T18:13:12.590Z,98818.06
2019-05-06T18:15:43.063Z,98822.64
2019-05-06T18:18:13.041Z,98826.41
2019-05-06T18:20:42.693Z,98824.58
2019-05-06T18:23:12.903Z,98824.11
2019-05-06T18:25:43.076Z,98823.06
2019-05-06T18:28:12.316Z,98809.70
2019-05-06T18:30:43.488Z,98806.13
2019-05-06T18:33:13.318Z,98807.45
2019-05-06T18:35:43.454Z,98808.30
2019-05-06T18:38:12.379Z,98810.23
2019-05-06T18:40:42.344Z,98812.73
2019-05-06T18:43:12.770Z,98805.41
2019-05-06T18:45:41.981Z,98808.12
2019-05-06T18:48:10.693Z,98810.23
2019-05-06T18:50:39.527Z,98803.36
2019-05-06T18:53:08.448Z,98813.36
2019-05-06T18:55:42.103Z,98817.92
2019-05-06T18:58:12.728Z,98811.09
2019-05-06T19:00:41.112Z,98808.33
2019-05-06T19:03:13.286Z,98814.27
2019-05-06T19:05:42.998Z,98810.50
2019-05-06T19:08:21.968Z,98814.66
2019-05-06T19:10:50.742Z,98819.19
2019-05-06T19:13:19.513Z,98817.61
2019-05-06T19:15:48.372Z,98820.67
2019-05-06T19:18:17.379Z,98821.77
2019-05-06T19:20:46.319Z,98819.92
2019-05-06T19:23:15.011Z,98819.95
2019-05-06T19:25:43.741Z,98830.33
2019-05-06T19:28:14.141Z,98831.38
2019-05-06T19:30:43.257Z,98834.91
2019-05-06T19:33:12.323Z,98832.54
2019-05-06T19:35:42.834Z,98831.97
2019-05-06T19:38:12.502Z,98834.47
2019-05-06T19:40:41.591Z,98835.56
2019-05-06T19:43:12.263Z,98841.81
2019-05-06T19:45:42.257Z,98845.09
2019-05-06T19:48:13.245Z,98843.20
2019-05-06T19:50:42.477Z,98838.06
2019-05-06T19:53:11.840Z,98841.84
2019-05-06T19:55:43.872Z,98843.50
2019-05-06T19:58:12.989Z,98843.50
2019-05-06T20:00:42.060Z,98844.61
2019-05-06T20:03:12.311Z,98841.59
2019-05-06T20:06:02.345Z,98838.05
2019-05-06T20:08:42.201Z,98840.11
2019-05-06T20:11:36.756Z,98839.88
2019-05-06T20:14:05.521Z,98837.99
2019-05-06T20:16:34.473Z,98841.46
2019-05-06T20:19:03.390Z,98833.02
2019-05-06T20:21:32.931Z,98835.96
2019-05-06T20:24:02.403Z,98841.85
2019-05-06T20:26:32.408Z,98837.80
2019-05-06T20:29:02.179Z,98834.60
2019-05-06T20:31:32.160Z,98834.51
2019-05-06T20:34:02.261Z,98828.77
2019-05-06T20:36:33.179Z,98820.73
2019-05-06T20:39:02.541Z,98818.86
2019-05-06T20:41:32.861Z,98824.04
2019-05-06T20:44:02.672Z,98820.23
2019-05-06T20:46:32.302Z,98822.73
2019-05-06T20:49:02.487Z,98812.92
2019-05-06T20:51:32.776Z,98809.88
2019-05-06T20:54:01.614Z,98813.11
2019-05-06T20:56:32.607Z,98813.39
2019-05-06T20:59:02.420Z,98801.23
2019-05-06T21:01:32.681Z,98818.10
2019-05-06T21:04:02.203Z,98813.23
2019-05-06T21:06:32.219Z,98809.48
2019-05-06T21:09:02.101Z,98808.89
2019-05-06T21:11:32.534Z,98810.84
2019-05-06T21:14:02.323Z,98760.13
2019-05-06T21:16:32.098Z,98817.89
2019-05-06T21:19:03.232Z,98813.28
2019-05-06T21:21:32.714Z,98815.21
2019-05-06T21:24:02.120Z,98807.83
2019-05-06T21:26:32.978Z,98811.92
2019-05-06T21:29:03.244Z,98810.84
2019-05-06T21:31:32.672Z,98810.56
2019-05-06T21:34:01.405Z,98814.06
2019-05-06T21:36:30.465Z,98815.12
2019-05-06T21:38:59.166Z,98815.15
2019-05-06T21:41:28.102Z,98810.17
2019-05-06T21:43:57.036Z,98816.76
2019-05-06T21:46:25.996Z,98810.77
2019-05-06T21:48:55.249Z,98805.03
2019-05-06T21:51:24.057Z,98803.13
2019-05-06T21:53:52.870Z,98802.08
2019-05-06T21:56:22.628Z,98806.77
2019-05-06T21:58:52.394Z,98803.50
2019-05-06T22:01:22.207Z,98808.41
2019-05-06T22:03:50.882Z,98801.27
2019-05-06T22:06:19.885Z,98805.08
2019-05-06T22:08:48.839Z,98805.37
2019-05-06T22:11:17.539Z,98804.83
2019-05-06T22:13:57.875Z,98812.22
2019-05-06T22:16:19.627Z,98810.89
2019-05-06T22:18:48.352Z,98817.69
2019-05-06T22:21:22.479Z,98817.69
2019-05-06T22:23:53.078Z,98817.70
2019-05-06T22:26:23.238Z,98801.69
2019-05-06T22:28:52.632Z,98808.50
2019-05-06T22:31:24.188Z,98804.94
2019-05-06T22:33:52.374Z,98792.47
2019-05-06T22:36:22.732Z,98803.14
2019-05-06T22:38:54.015Z,98803.73
2019-05-06T22:41:25.254Z,98796.95
2019-05-06T22:43:53.631Z,98793.41
2019-05-06T22:46:23.370Z,98791.26
2019-05-06T22:48:54.525Z,98796.70
2019-05-06T22:51:23.415Z,98796.17
2019-05-06T22:53:53.234Z,98791.81
2019-05-06T22:56:23.019Z,98792.36
2019-05-06T22:58:52.564Z,98794.25
2019-05-06T23:01:54.270Z,98795.07
2019-05-06T23:04:24.104Z,98797.80
2019-05-06T23:06:52.962Z,98799.13
2019-05-06T23:09:24.531Z,98804.25
2019-05-06T23:11:52.994Z,98801.58
2019-05-06T23:14:31.351Z,98803.75
2019-05-06T23:16:52.348Z,98807.29
2019-05-06T23:19:21.943Z,98804.00
2019-05-06T23:21:53.327Z,98802.95
2019-05-06T23:24:22.560Z,98801.30
2019-05-06T23:26:54.308Z,98805.13
2019-05-06T23:29:22.520Z,98806.73
2019-05-06T23:31:52.120Z,98810.53
2019-05-06T23:34:23.046Z,98808.06
2019-05-06T23:37:23.218Z,98808.62
2019-05-06T23:40:39.939Z,98809.42
2019-05-06T23:43:44.497Z,98803.75
2019-05-06T23:46:49.785Z,98809.98
2019-05-06T23:49:54.455Z,98806.19
2019-05-06T23:52:59.230Z,98809.16
2019-05-06T23:56:03.959Z,98807.81
2019-05-06T23:58:32.636Z,98811.37
